Terminal Aerodrome Forecast
Issued by NWS Sioux Falls, SD

Home | Current Version | Previous Version | Text Only | Print | Product List | Glossary Off
Versions: 1 2 3 4 5 6 7 8 9 10 11 12 13

000
FTUS43 KFSD 271745
TAFHON
TAF
KHON 271745Z 2718/2818 12010KT P6SM BKN120
     FM280300 07012KT P6SM -SHRA BKN035
     FM280900 01009KT 5SM BR OVC007
     FM281500 02010KT P6SM SCT040=

USA.gov is the U.S. government's official web portal to all federal, state and local government web resources and services.